createdAt,value
2018-09-25T00:00:36.602Z,7.46
2018-09-25T00:03:14.540Z,7.37
2018-09-25T00:05:52.460Z,7.38
2018-09-25T00:08:30.382Z,7.44
2018-09-25T00:11:08.281Z,7.43
2018-09-25T00:13:46.284Z,7.47
2018-09-25T00:16:24.173Z,7.43
2018-09-25T00:19:02.125Z,7.41
2018-09-25T00:21:40.098Z,7.38
2018-09-25T00:24:18.040Z,7.46
2018-09-25T00:26:55.972Z,7.39
2018-09-25T00:29:34.062Z,7.36
2018-09-25T00:32:12.030Z,7.21
2018-09-25T00:34:50.038Z,7.07
2018-09-25T00:37:28.116Z,7.08
2018-09-25T00:40:06.049Z,7.09
2018-09-25T00:42:43.992Z,7.19
2018-09-25T00:45:21.923Z,7.25
2018-09-25T00:47:59.803Z,7.16
2018-09-25T00:50:37.633Z,7.11
2018-09-25T00:53:15.631Z,7.12
2018-09-25T00:55:53.564Z,7.03
2018-09-25T00:58:31.485Z,7.02
2018-09-25T01:01:09.480Z,6.96
2018-09-25T01:03:47.425Z,6.92
2018-09-25T01:06:25.553Z,6.88
2018-09-25T01:09:03.429Z,6.85
2018-09-25T01:11:41.476Z,6.83
2018-09-25T01:14:19.416Z,6.76
2018-09-25T01:16:57.372Z,6.87
2018-09-25T01:19:35.237Z,6.76
2018-09-25T01:22:13.083Z,6.70
2018-09-25T01:24:51.000Z,6.59
2018-09-25T01:27:28.974Z,6.57
2018-09-25T01:30:06.957Z,6.50
2018-09-25T01:32:48.252Z,6.61
2018-09-25T01:35:28.556Z,6.52
2018-09-25T01:38:07.714Z,6.42
2018-09-25T01:43:33.344Z,6.49
2018-09-25T01:46:11.305Z,6.45
2018-09-25T01:48:49.265Z,6.40
2018-09-25T01:51:27.121Z,6.36
2018-09-25T01:54:05.001Z,6.28
2018-09-25T01:56:42.946Z,6.24
2018-09-25T01:59:20.902Z,6.22
2018-09-25T02:01:59.037Z,6.10
2018-09-25T02:04:37.012Z,6.00
2018-09-25T02:07:14.906Z,5.91
2018-09-25T02:09:52.916Z,6.00
2018-09-25T02:12:30.975Z,6.03
2018-09-25T02:15:08.937Z,6.05
2018-09-25T02:17:46.924Z,6.16
2018-09-25T02:20:24.817Z,6.12
2018-09-25T02:23:02.783Z,6.09
2018-09-25T02:25:40.588Z,6.01
2018-09-25T02:28:18.488Z,6.00
2018-09-25T02:30:56.278Z,5.97
2018-09-25T02:33:34.165Z,5.93
2018-09-25T02:36:12.119Z,5.96
2018-09-25T02:38:50.082Z,5.99
2018-09-25T02:41:27.931Z,5.99
2018-09-25T02:44:05.973Z,5.95
2018-09-25T02:46:43.863Z,5.81
2018-09-25T02:49:21.770Z,5.85
2018-09-25T02:51:59.774Z,5.91
2018-09-25T02:54:37.632Z,5.80
2018-09-25T02:57:15.662Z,5.73
2018-09-25T02:59:53.723Z,5.71
2018-09-25T03:02:31.681Z,5.70
2018-09-25T03:05:09.553Z,5.70
2018-09-25T03:07:47.496Z,5.71
2018-09-25T03:10:25.309Z,5.63
2018-09-25T03:13:03.501Z,5.59
2018-09-25T03:15:41.399Z,5.58
2018-09-25T03:18:19.348Z,5.61
2018-09-25T03:20:57.232Z,5.42
2018-09-25T03:23:35.154Z,5.50
2018-09-25T03:26:12.997Z,5.56
2018-09-25T03:28:51.020Z,5.59
2018-09-25T03:31:28.947Z,5.60
2018-09-25T03:34:07.053Z,5.62
2018-09-25T03:36:45.069Z,5.59
2018-09-25T03:39:23.069Z,5.50
2018-09-25T03:42:01.009Z,5.43
2018-09-25T03:44:38.882Z,5.47
2018-09-25T03:47:17.057Z,5.54
2018-09-25T03:49:55.081Z,5.52
2018-09-25T03:52:32.968Z,5.41
2018-09-25T03:55:10.884Z,5.32
2018-09-25T03:57:48.657Z,5.17
2018-09-25T04:00:26.598Z,5.18
2018-09-25T04:03:04.572Z,5.11
2018-09-25T04:05:43.506Z,5.03
2018-09-25T04:08:21.505Z,5.05
2018-09-25T04:10:59.565Z,5.14
2018-09-25T04:13:37.417Z,5.05
2018-09-25T04:16:15.445Z,5.05
2018-09-25T04:18:53.512Z,5.08
2018-09-25T04:21:31.468Z,5.17
2018-09-25T04:24:09.406Z,5.08
2018-09-25T04:26:47.397Z,4.97
2018-09-25T04:29:25.285Z,4.90
2018-09-25T04:32:03.311Z,4.95
2018-09-25T04:34:41.372Z,5.00
2018-09-25T04:37:20.399Z,4.98
2018-09-25T04:39:58.359Z,5.06
2018-09-25T04:42:36.297Z,5.04
2018-09-25T04:45:14.177Z,4.92
2018-09-25T04:47:52.359Z,4.87
2018-09-25T04:50:30.316Z,4.95
2018-09-25T04:53:08.332Z,4.89
2018-09-25T04:55:46.153Z,4.83
2018-09-25T04:58:24.188Z,4.82
2018-09-25T05:01:02.196Z,4.85
2018-09-25T05:03:40.128Z,4.88
2018-09-25T05:06:18.056Z,4.95
2018-09-25T05:08:57.086Z,4.88
2018-09-25T05:11:35.165Z,4.80
2018-09-25T05:14:13.237Z,4.77
2018-09-25T05:16:51.054Z,4.88
2018-09-25T05:19:29.051Z,4.90
2018-09-25T05:22:06.993Z,4.95
2018-09-25T05:24:45.005Z,4.94
2018-09-25T05:27:22.891Z,4.96
2018-09-25T05:30:00.904Z,5.03
2018-09-25T05:32:38.930Z,5.04
2018-09-25T05:35:16.930Z,4.97
2018-09-25T05:37:54.953Z,4.94
2018-09-25T05:40:32.942Z,4.93
2018-09-25T05:43:11.132Z,4.90
2018-09-25T05:45:49.141Z,4.96
2018-09-25T05:48:27.055Z,4.98
2018-09-25T05:51:05.021Z,5.03
2018-09-25T05:53:42.971Z,4.87
2018-09-25T05:56:20.881Z,4.91
2018-09-25T05:58:58.856Z,4.93
2018-09-25T06:01:36.982Z,4.97
2018-09-25T06:04:14.980Z,5.10
2018-09-25T06:06:52.976Z,5.37
2018-09-25T06:09:30.893Z,5.62
2018-09-25T06:12:08.981Z,6.09
2018-09-25T06:14:46.828Z,6.57
2018-09-25T06:17:24.869Z,6.97
2018-09-25T06:20:02.809Z,7.35
2018-09-25T06:22:40.708Z,7.57
2018-09-25T06:25:18.647Z,8.35
2018-09-25T06:27:56.640Z,8.92
2018-09-25T06:30:34.553Z,9.43
2018-09-25T06:33:12.576Z,9.97
2018-09-25T06:35:50.544Z,10.41
2018-09-25T06:38:28.526Z,10.59
2018-09-25T06:41:06.440Z,10.57
2018-09-25T06:43:44.276Z,11.02
2018-09-25T06:46:22.312Z,11.46
2018-09-25T06:49:00.117Z,11.63
2018-09-25T06:51:38.033Z,11.55
2018-09-25T06:54:16.032Z,11.00
2018-09-25T06:56:53.984Z,10.90
2018-09-25T06:59:31.916Z,11.24
2018-09-25T07:02:09.976Z,11.25
2018-09-25T07:04:47.925Z,11.37
2018-09-25T07:07:25.898Z,11.54
2018-09-25T07:10:04.066Z,11.60
2018-09-25T07:12:41.876Z,11.52
2018-09-25T07:15:19.809Z,11.84
2018-09-25T07:17:57.806Z,12.07
2018-09-25T07:20:35.679Z,12.17
2018-09-25T07:23:13.512Z,12.47
2018-09-25T07:25:51.501Z,12.60
2018-09-25T07:28:29.485Z,12.32
2018-09-25T07:31:07.549Z,12.45
2018-09-25T07:33:45.409Z,12.48
2018-09-25T07:36:23.528Z,12.81
2018-09-25T07:39:01.487Z,12.68
2018-09-25T07:41:39.461Z,12.79
2018-09-25T07:44:17.384Z,12.81
2018-09-25T07:46:55.469Z,13.03
2018-09-25T07:49:33.396Z,13.06
2018-09-25T07:52:11.485Z,13.11
2018-09-25T07:54:49.414Z,13.02
2018-09-25T07:57:27.457Z,13.54
2018-09-25T08:00:05.357Z,13.81
2018-09-25T08:02:43.350Z,14.02
2018-09-25T08:05:21.289Z,13.90
2018-09-25T08:07:59.325Z,13.90
2018-09-25T08:10:37.169Z,14.09
2018-09-25T08:13:15.197Z,13.73
2018-09-25T08:15:53.182Z,14.07
2018-09-25T08:18:31.072Z,14.26
2018-09-25T08:21:09.076Z,14.50
2018-09-25T08:23:46.924Z,14.46
2018-09-25T08:26:24.860Z,14.94
2018-09-25T08:29:02.814Z,14.90
2018-09-25T08:31:40.805Z,14.99
2018-09-25T08:34:18.784Z,15.03
2018-09-25T08:36:56.760Z,15.22
2018-09-25T08:39:34.985Z,15.40
2018-09-25T08:42:12.670Z,15.37
2018-09-25T08:44:50.656Z,15.47
2018-09-25T08:47:28.630Z,15.62
2018-09-25T08:50:06.418Z,15.20
2018-09-25T08:52:44.351Z,14.90
2018-09-25T08:55:22.238Z,14.89
2018-09-25T08:58:00.185Z,14.55
2018-09-25T09:00:38.271Z,14.17
2018-09-25T09:03:16.217Z,14.21
2018-09-25T09:05:54.248Z,13.85
2018-09-25T09:08:32.260Z,14.00
2018-09-25T09:11:10.234Z,13.96
2018-09-25T09:13:48.285Z,13.96
2018-09-25T09:16:26.252Z,14.20
2018-09-25T09:19:04.245Z,13.89
2018-09-25T09:21:42.173Z,13.77
2018-09-25T09:24:20.150Z,14.26
2018-09-25T09:26:58.133Z,13.67
2018-09-25T09:29:36.076Z,14.07
2018-09-25T09:32:13.875Z,14.41
2018-09-25T09:34:51.781Z,14.01
2018-09-25T09:37:29.600Z,14.35
2018-09-25T09:40:07.521Z,14.52
2018-09-25T09:42:45.485Z,14.58
2018-09-25T09:45:23.372Z,14.09
2018-09-25T09:48:01.171Z,14.62
2018-09-25T09:50:39.129Z,14.70
2018-09-25T09:53:17.040Z,14.20
2018-09-25T09:55:54.982Z,14.01
2018-09-25T09:58:32.818Z,14.29
2018-09-25T10:01:10.800Z,14.42
2018-09-25T10:03:48.732Z,14.52
2018-09-25T10:06:26.722Z,14.33
2018-09-25T10:09:04.664Z,14.07
2018-09-25T10:11:42.618Z,14.15
2018-09-25T10:14:21.113Z,13.82
2018-09-25T10:16:59.128Z,14.32
2018-09-25T10:19:37.132Z,14.31
2018-09-25T10:22:15.090Z,14.46
2018-09-25T10:24:52.941Z,14.41
2018-09-25T10:27:30.967Z,14.24
2018-09-25T10:30:08.989Z,14.18
2018-09-25T10:32:47.093Z,14.30
2018-09-25T10:35:24.985Z,14.24
2018-09-25T10:38:02.850Z,14.26
2018-09-25T10:40:40.773Z,14.13
2018-09-25T10:43:18.801Z,14.04
2018-09-25T10:45:56.653Z,14.25
2018-09-25T10:48:34.524Z,14.50
2018-09-25T10:51:12.575Z,14.72
2018-09-25T10:53:50.601Z,14.63
2018-09-25T10:56:28.544Z,14.70
2018-09-25T10:59:06.494Z,14.66
2018-09-25T11:01:44.504Z,14.89
2018-09-25T11:04:22.515Z,15.03
2018-09-25T11:07:00.422Z,14.92
2018-09-25T11:09:38.418Z,14.85
2018-09-25T11:12:16.345Z,14.79
2018-09-25T11:14:54.103Z,14.92
2018-09-25T11:17:32.175Z,14.92
2018-09-25T11:20:10.068Z,14.92
2018-09-25T11:22:47.809Z,14.89
2018-09-25T11:25:25.766Z,14.86
2018-09-25T11:28:03.813Z,15.04
2018-09-25T11:30:41.855Z,14.92
2018-09-25T11:33:19.846Z,14.94
2018-09-25T11:35:57.856Z,15.05
2018-09-25T11:38:35.784Z,15.08
2018-09-25T11:41:13.797Z,14.47
2018-09-25T11:43:51.767Z,14.62
2018-09-25T11:46:29.801Z,14.75
2018-09-25T11:49:07.753Z,14.68
2018-09-25T11:51:45.713Z,14.70
2018-09-25T11:54:23.725Z,14.67
2018-09-25T11:57:01.629Z,14.77
2018-09-25T11:59:39.718Z,14.71
2018-09-25T12:02:17.767Z,14.62
2018-09-25T12:04:55.748Z,14.87
2018-09-25T12:07:33.827Z,14.65
2018-09-25T12:10:11.805Z,14.83
2018-09-25T12:12:49.748Z,14.91
2018-09-25T12:15:27.588Z,14.74
2018-09-25T12:18:05.560Z,14.90
2018-09-25T12:20:43.559Z,15.00
2018-09-25T12:23:21.537Z,14.69
2018-09-25T12:25:59.422Z,14.66
2018-09-25T12:28:37.332Z,14.67
2018-09-25T12:31:15.244Z,14.72
2018-09-25T12:33:53.324Z,14.89
2018-09-25T12:36:31.156Z,14.98
2018-09-25T12:39:10.933Z,14.91
2018-09-25T12:41:48.905Z,14.77
2018-09-25T12:44:26.776Z,14.86
2018-09-25T12:47:04.825Z,14.95
2018-09-25T12:49:42.829Z,14.95
2018-09-25T12:52:20.808Z,14.91
2018-09-25T12:54:58.975Z,14.91
2018-09-25T12:57:36.885Z,14.91
2018-09-25T13:00:14.842Z,14.82
2018-09-25T13:02:52.702Z,14.86
2018-09-25T13:05:30.680Z,14.72
2018-09-25T13:08:08.965Z,14.80
2018-09-25T13:10:46.958Z,14.84
2018-09-25T13:13:24.873Z,14.92
2018-09-25T13:16:03.044Z,14.85
2018-09-25T13:18:40.955Z,14.97
2018-09-25T13:21:18.997Z,14.94
2018-09-25T13:23:57.015Z,15.04
2018-09-25T13:26:35.042Z,15.09
2018-09-25T13:29:12.957Z,15.22
2018-09-25T13:31:50.927Z,15.05
2018-09-25T13:34:28.901Z,15.13
2018-09-25T13:37:06.834Z,14.91
2018-09-25T13:39:44.842Z,14.97
2018-09-25T13:42:22.757Z,14.95
2018-09-25T13:45:00.718Z,14.86
2018-09-25T13:47:38.748Z,14.77
2018-09-25T13:50:16.718Z,14.84
2018-09-25T13:52:54.688Z,14.81
2018-09-25T13:55:32.720Z,14.90
2018-09-25T13:58:10.619Z,14.83
2018-09-25T14:00:49.044Z,14.84
2018-09-25T14:03:27.100Z,14.81
2018-09-25T14:06:05.000Z,14.76
2018-09-25T14:08:42.853Z,14.81
2018-09-25T14:11:20.895Z,14.80
2018-09-25T14:13:58.893Z,14.93
2018-09-25T14:16:36.900Z,14.88
2018-09-25T14:19:14.784Z,14.68
2018-09-25T14:21:52.841Z,14.51
2018-09-25T14:24:31.005Z,14.71
2018-09-25T14:27:08.801Z,14.87
2018-09-25T14:29:46.807Z,14.85
2018-09-25T14:32:24.816Z,14.97
2018-09-25T14:35:02.803Z,14.95
2018-09-25T14:37:40.781Z,14.78
2018-09-25T14:40:18.653Z,14.78
2018-09-25T14:42:56.715Z,14.91
2018-09-25T14:45:34.736Z,14.94
2018-09-25T14:48:12.705Z,14.82
2018-09-25T14:50:50.657Z,14.87
2018-09-25T14:53:28.722Z,14.73
2018-09-25T14:56:06.695Z,14.69
2018-09-25T14:58:44.646Z,14.74
2018-09-25T15:01:22.662Z,14.71
2018-09-25T15:04:00.590Z,14.69
2018-09-25T15:06:38.718Z,14.73
2018-09-25T15:09:16.780Z,14.76
2018-09-25T15:11:54.746Z,14.60
2018-09-25T15:14:32.689Z,14.73
2018-09-25T15:17:10.651Z,14.85
2018-09-25T15:19:48.738Z,14.84
2018-09-25T15:22:26.578Z,14.96
2018-09-25T15:25:04.508Z,14.79
2018-09-25T15:27:42.589Z,14.78
2018-09-25T15:30:20.574Z,14.62
2018-09-25T15:32:58.497Z,14.48
2018-09-25T15:35:36.557Z,14.54
2018-09-25T15:38:14.496Z,14.42
2018-09-25T15:40:52.498Z,14.55
2018-09-25T15:43:30.389Z,14.48
2018-09-25T15:46:08.302Z,14.62
2018-09-25T15:48:46.249Z,14.37
2018-09-25T15:51:24.315Z,14.31
2018-09-25T15:54:02.490Z,14.40
2018-09-25T15:56:40.422Z,14.48
2018-09-25T15:59:18.305Z,14.42
2018-09-25T16:01:56.359Z,14.33
2018-09-25T16:04:34.365Z,14.33
2018-09-25T16:07:12.339Z,14.00
2018-09-25T16:09:50.319Z,14.13
2018-09-25T16:12:28.270Z,14.16
2018-09-25T16:15:06.171Z,14.10
2018-09-25T16:17:44.297Z,14.19
2018-09-25T16:20:22.317Z,13.87
2018-09-25T16:23:00.225Z,13.86
2018-09-25T16:25:38.142Z,13.83
2018-09-25T16:28:16.121Z,13.94
2018-09-25T16:30:54.092Z,13.92
2018-09-25T16:33:32.036Z,13.93
2018-09-25T16:36:10.155Z,13.88
2018-09-25T16:38:48.129Z,13.73
2018-09-25T16:41:26.157Z,13.78
2018-09-25T16:44:04.158Z,13.73
2018-09-25T16:46:42.249Z,13.60
2018-09-25T16:49:20.179Z,13.56
2018-09-25T16:51:58.198Z,13.57
2018-09-25T16:54:36.251Z,13.45
2018-09-25T16:57:14.338Z,13.40
2018-09-25T16:59:52.264Z,13.31
2018-09-25T17:02:37.401Z,13.26
2018-09-25T17:05:15.446Z,13.11
2018-09-25T17:07:53.342Z,13.08
2018-09-25T17:10:31.354Z,13.16
2018-09-25T17:13:09.372Z,13.04
2018-09-25T17:15:47.413Z,12.97
2018-09-25T17:18:25.343Z,12.90
2018-09-25T17:21:03.437Z,12.92
2018-09-25T17:23:41.521Z,12.85
2018-09-25T17:26:19.599Z,12.73
2018-09-25T17:28:57.521Z,12.69
2018-09-25T17:31:35.376Z,12.61
2018-09-25T17:34:13.333Z,12.53
2018-09-25T17:36:51.415Z,12.50
2018-09-25T17:39:29.280Z,12.37
2018-09-25T17:42:07.221Z,12.33
2018-09-25T17:44:45.211Z,12.24
2018-09-25T17:47:23.240Z,12.16
2018-09-25T17:50:01.299Z,12.04
2018-09-25T17:52:40.206Z,12.18
2018-09-25T17:55:18.158Z,11.89
2018-09-25T17:57:56.082Z,11.75
2018-09-25T18:00:34.096Z,11.66
2018-09-25T18:03:12.655Z,11.62
2018-09-25T18:05:50.699Z,11.60
2018-09-25T18:08:28.645Z,11.48
2018-09-25T18:11:06.564Z,11.40
2018-09-25T18:13:44.513Z,11.22
2018-09-25T18:16:22.575Z,11.17
2018-09-25T18:19:00.522Z,11.05
2018-09-25T18:21:38.543Z,11.09
2018-09-25T18:24:16.380Z,10.98
2018-09-25T18:26:54.245Z,10.85
2018-09-25T18:29:49.448Z,10.85
2018-09-25T18:32:27.541Z,10.75
2018-09-25T18:35:05.425Z,10.76
2018-09-25T18:37:43.352Z,10.71
2018-09-25T18:40:21.414Z,10.64
2018-09-25T18:42:59.451Z,10.54
2018-09-25T18:45:37.409Z,10.59
2018-09-25T18:48:15.422Z,10.50
2018-09-25T18:50:53.350Z,10.36
2018-09-25T18:53:31.318Z,10.27
2018-09-25T18:56:09.195Z,10.19
2018-09-25T18:58:47.235Z,10.11
2018-09-25T19:01:25.080Z,10.01
2018-09-25T19:04:03.130Z,9.92
2018-09-25T19:06:41.211Z,9.89
2018-09-25T19:09:19.222Z,9.72
2018-09-25T19:11:57.128Z,9.66
2018-09-25T19:14:35.125Z,9.62
2018-09-25T19:17:13.232Z,9.52
2018-09-25T19:19:51.251Z,9.52
2018-09-25T19:22:29.227Z,9.53
2018-09-25T19:25:07.244Z,9.50
2018-09-25T19:27:45.253Z,9.39
2018-09-25T19:30:23.282Z,9.28
2018-09-25T19:33:01.250Z,9.28
2018-09-25T19:35:39.151Z,9.23
2018-09-25T19:38:17.098Z,9.19
2018-09-25T19:40:55.058Z,9.15
2018-09-25T19:43:33.128Z,9.03
2018-09-25T19:46:11.070Z,9.03
2018-09-25T19:48:48.995Z,8.91
2018-09-25T19:51:26.927Z,8.80
2018-09-25T19:54:04.963Z,8.77
2018-09-25T19:56:42.972Z,8.82
2018-09-25T19:59:20.820Z,8.73
2018-09-25T20:01:58.722Z,8.62
2018-09-25T20:04:36.721Z,8.47
2018-09-25T20:07:14.891Z,8.40
2018-09-25T20:09:53.262Z,8.38
2018-09-25T20:12:31.074Z,8.37
2018-09-25T20:15:09.050Z,8.40
2018-09-25T20:17:47.007Z,8.28
2018-09-25T20:20:24.995Z,8.27
2018-09-25T20:23:03.003Z,8.23
2018-09-25T20:25:41.108Z,8.17
2018-09-25T20:28:18.930Z,8.15
2018-09-25T20:30:56.909Z,8.18
2018-09-25T20:33:34.720Z,8.21
2018-09-25T20:36:12.653Z,8.22
2018-09-25T20:38:50.554Z,8.11
2018-09-25T20:41:28.583Z,8.07
2018-09-25T20:44:06.675Z,8.01
2018-09-25T20:46:44.666Z,7.97
2018-09-25T20:49:22.556Z,7.94
2018-09-25T20:52:00.477Z,7.94
2018-09-25T20:54:38.584Z,7.84
2018-09-25T20:57:16.653Z,7.87
2018-09-25T20:59:54.484Z,7.92
2018-09-25T21:02:32.527Z,7.84
2018-09-25T21:05:10.506Z,7.77
2018-09-25T21:07:48.531Z,7.71
2018-09-25T21:10:26.397Z,7.70
2018-09-25T21:13:04.438Z,7.63
2018-09-25T21:15:42.415Z,7.59
2018-09-25T21:18:20.394Z,7.57
2018-09-25T21:20:58.413Z,7.53
2018-09-25T21:23:36.584Z,7.42
2018-09-25T21:26:14.560Z,7.37
2018-09-25T21:28:52.532Z,7.28
2018-09-25T21:31:30.461Z,7.34
2018-09-25T21:34:08.453Z,7.39
2018-09-25T21:36:46.375Z,7.36
2018-09-25T21:39:24.367Z,7.40
2018-09-25T21:42:02.306Z,7.37
2018-09-25T21:44:40.274Z,7.28
2018-09-25T21:47:18.226Z,7.28
2018-09-25T21:49:56.166Z,7.34
2018-09-25T21:52:34.098Z,7.29
2018-09-25T21:55:12.051Z,7.12
2018-09-25T21:57:49.972Z,7.14
2018-09-25T22:00:27.878Z,6.98
2018-09-25T22:03:05.897Z,6.99
2018-09-25T22:05:43.963Z,6.95
2018-09-25T22:08:21.923Z,6.89
2018-09-25T22:10:59.838Z,6.85
2018-09-25T22:13:37.820Z,6.93
2018-09-25T22:16:15.618Z,6.85
2018-09-25T22:18:53.650Z,6.81
2018-09-25T22:21:31.686Z,6.80
2018-09-25T22:24:09.581Z,6.87
2018-09-25T22:26:47.498Z,6.88
2018-09-25T22:29:25.476Z,6.84
2018-09-25T22:32:03.506Z,6.83
2018-09-25T22:34:41.520Z,6.74
2018-09-25T22:37:19.490Z,6.71
2018-09-25T22:39:57.370Z,6.53
2018-09-25T22:42:35.237Z,6.47
2018-09-25T22:45:13.174Z,6.40
2018-09-25T22:47:51.045Z,6.41
2018-09-25T22:50:28.952Z,6.37
2018-09-25T22:53:06.854Z,6.34
2018-09-25T22:55:44.736Z,6.17
2018-09-25T22:58:22.725Z,6.18
2018-09-25T23:01:00.563Z,6.15
2018-09-25T23:03:38.426Z,6.16
2018-09-25T23:06:16.388Z,6.16
2018-09-25T23:08:54.376Z,6.11
2018-09-25T23:11:32.204Z,6.15
2018-09-25T23:14:10.037Z,6.20
2018-09-25T23:16:47.985Z,6.18
2018-09-25T23:19:26.114Z,6.15
2018-09-25T23:22:04.011Z,6.15
2018-09-25T23:24:41.924Z,6.17
2018-09-25T23:27:19.805Z,6.15
2018-09-25T23:29:57.841Z,6.04
2018-09-25T23:32:35.721Z,5.99
2018-09-25T23:35:13.675Z,5.95
2018-09-25T23:37:51.581Z,5.88
2018-09-25T23:40:29.521Z,5.82
2018-09-25T23:45:15.073Z,5.89
2018-09-25T23:47:53.037Z,5.83
2018-09-25T23:50:31.095Z,5.94
2018-09-25T23:53:05.785Z,6.02
2018-09-25T23:55:44.535Z,6.01
2018-09-25T23:58:23.333Z,5.92
